sensor_id;sensor_type;location;lat;lon;timestamp;temperature;humidity
3406;DHT22;10008;48.682;9.016;2022-08-19T00:00:30;20.30;99.90
3406;DHT22;10008;48.682;9.016;2022-08-19T00:02:56;20.30;99.90
3406;DHT22;10008;48.682;9.016;2022-08-19T00:05:22;20.30;99.90
3406;DHT22;10008;48.682;9.016;2022-08-19T00:07:49;20.40;99.90
3406;DHT22;10008;48.682;9.016;2022-08-19T00:10:16;20.20;99.90
3406;DHT22;10008;48.682;9.016;2022-08-19T00:12:42;20.20;99.90
3406;DHT22;10008;48.682;9.016;2022-08-19T00:15:13;20.20;99.90
3406;DHT22;10008;48.682;9.016;2022-08-19T00:17:41;20.20;99.90
3406;DHT22;10008;48.682;9.016;2022-08-19T00:20:10;20.20;99.90
3406;DHT22;10008;48.682;9.016;2022-08-19T00:22:37;20.20;99.90
3406;DHT22;10008;48.682;9.016;2022-08-19T00:25:04;20.20;99.90
3406;DHT22;10008;48.682;9.016;2022-08-19T00:27:31;20.20;99.90
3406;DHT22;10008;48.682;9.016;2022-08-19T00:29:56;20.20;99.90
3406;DHT22;10008;48.682;9.016;2022-08-19T00:32:24;20.10;99.90
3406;DHT22;10008;48.682;9.016;2022-08-19T00:34:52;20.00;99.90
3406;DHT22;10008;48.682;9.016;2022-08-19T00:37:22;20.00;99.90
3406;DHT22;10008;48.682;9.016;2022-08-19T00:39:49;20.00;99.90
3406;DHT22;10008;48.682;9.016;2022-08-19T00:42:18;20.00;99.90
3406;DHT22;10008;48.682;9.016;2022-08-19T00:44:44;20.00;99.90
3406;DHT22;10008;48.682;9.016;2022-08-19T00:47:10;20.10;99.90
3406;DHT22;10008;48.682;9.016;2022-08-19T00:49:50;20.00;99.90
3406;DHT22;10008;48.682;9.016;2022-08-19T00:52:21;20.10;99.90
3406;DHT22;10008;48.682;9.016;2022-08-19T00:54:48;20.10;99.90
3406;DHT22;10008;48.682;9.016;2022-08-19T00:57:17;20.10;99.90
3406;DHT22;10008;48.682;9.016;2022-08-19T00:59:47;20.20;99.90
3406;DHT22;10008;48.682;9.016;2022-08-19T01:02:14;20.20;99.90
3406;DHT22;10008;48.682;9.016;2022-08-19T01:04:40;20.20;99.90
3406;DHT22;10008;48.682;9.016;2022-08-19T01:07:07;20.10;99.90
3406;DHT22;10008;48.682;9.016;2022-08-19T01:09:33;20.10;99.90
3406;DHT22;10008;48.682;9.016;2022-08-19T01:11:59;20.10;99.90
3406;DHT22;10008;48.682;9.016;2022-08-19T01:14:25;20.10;99.90
3406;DHT22;10008;48.682;9.016;2022-08-19T01:16:53;20.10;99.90
3406;DHT22;10008;48.682;9.016;2022-08-19T01:19:30;20.10;99.90
3406;DHT22;10008;48.682;9.016;2022-08-19T01:22:04;20.00;99.90
3406;DHT22;10008;48.682;9.016;2022-08-19T01:24:31;20.00;99.90
3406;DHT22;10008;48.682;9.016;2022-08-19T01:26:57;20.00;99.90
3406;DHT22;10008;48.682;9.016;2022-08-19T01:29:23;20.00;99.90
3406;DHT22;10008;48.682;9.016;2022-08-19T01:31:49;20.00;99.90
3406;DHT22;10008;48.682;9.016;2022-08-19T01:34:18;20.00;99.90
3406;DHT22;10008;48.682;9.016;2022-08-19T01:36:46;20.00;99.90
3406;DHT22;10008;48.682;9.016;2022-08-19T01:39:30;20.00;99.90
3406;DHT22;10008;48.682;9.016;2022-08-19T01:41:56;19.90;99.90
3406;DHT22;10008;48.682;9.016;2022-08-19T01:44:22;20.00;99.90
3406;DHT22;10008;48.682;9.016;2022-08-19T01:46:50;20.00;99.90
3406;DHT22;10008;48.682;9.016;2022-08-19T01:49:21;19.90;99.90
3406;DHT22;10008;48.682;9.016;2022-08-19T01:51:49;19.90;99.90
3406;DHT22;10008;48.682;9.016;2022-08-19T01:54:17;19.90;99.90
3406;DHT22;10008;48.682;9.016;2022-08-19T01:56:43;19.90;99.90
3406;DHT22;10008;48.682;9.016;2022-08-19T01:59:14;19.80;99.90
3406;DHT22;10008;48.682;9.016;2022-08-19T02:01:40;19.70;99.90
3406;DHT22;10008;48.682;9.016;2022-08-19T02:04:07;19.70;99.90
3406;DHT22;10008;48.682;9.016;2022-08-19T02:06:33;19.70;99.90
3406;DHT22;10008;48.682;9.016;2022-08-19T02:08:59;19.70;99.90
3406;DHT22;10008;48.682;9.016;2022-08-19T02:11:31;19.60;99.90
3406;DHT22;10008;48.682;9.016;2022-08-19T02:13:58;19.60;99.90
3406;DHT22;10008;48.682;9.016;2022-08-19T02:16:24;19.60;99.90
3406;DHT22;10008;48.682;9.016;2022-08-19T02:18:50;19.60;99.90
3406;DHT22;10008;48.682;9.016;2022-08-19T02:21:18;19.60;99.90
3406;DHT22;10008;48.682;9.016;2022-08-19T02:23:44;19.60;99.90
3406;DHT22;10008;48.682;9.016;2022-08-19T02:26:10;19.60;99.90
3406;DHT22;10008;48.682;9.016;2022-08-19T02:28:36;19.60;99.90
3406;DHT22;10008;48.682;9.016;2022-08-19T02:31:02;19.70;99.90
3406;DHT22;10008;48.682;9.016;2022-08-19T02:33:29;19.60;99.90
3406;DHT22;10008;48.682;9.016;2022-08-19T02:35:55;19.50;99.90
3406;DHT22;10008;48.682;9.016;2022-08-19T02:38:20;19.50;99.90
3406;DHT22;10008;48.682;9.016;2022-08-19T02:41:05;19.50;99.90
3406;DHT22;10008;48.682;9.016;2022-08-19T02:43:33;19.40;99.90
3406;DHT22;10008;48.682;9.016;2022-08-19T02:46:24;19.40;99.90
3406;DHT22;10008;48.682;9.016;2022-08-19T02:48:51;19.30;99.90
3406;DHT22;10008;48.682;9.016;2022-08-19T02:51:22;19.30;99.90
3406;DHT22;10008;48.682;9.016;2022-08-19T02:53:49;19.30;99.90
3406;DHT22;10008;48.682;9.016;2022-08-19T02:56:15;19.30;99.90
3406;DHT22;10008;48.682;9.016;2022-08-19T02:58:41;19.40;99.90
3406;DHT22;10008;48.682;9.016;2022-08-19T03:01:08;19.40;99.90
3406;DHT22;10008;48.682;9.016;2022-08-19T03:03:36;19.50;99.90
3406;DHT22;10008;48.682;9.016;2022-08-19T03:06:04;19.40;99.90
3406;DHT22;10008;48.682;9.016;2022-08-19T03:08:30;19.50;99.90
3406;DHT22;10008;48.682;9.016;2022-08-19T03:10:56;19.40;99.90
3406;DHT22;10008;48.682;9.016;2022-08-19T03:13:22;19.50;99.90
3406;DHT22;10008;48.682;9.016;2022-08-19T03:15:48;19.50;99.90
3406;DHT22;10008;48.682;9.016;2022-08-19T03:18:15;19.50;99.90
3406;DHT22;10008;48.682;9.016;2022-08-19T03:20:46;19.50;99.90
3406;DHT22;10008;48.682;9.016;2022-08-19T03:23:13;19.40;99.90
3406;DHT22;10008;48.682;9.016;2022-08-19T03:25:41;19.40;99.90
3406;DHT22;10008;48.682;9.016;2022-08-19T03:28:12;19.30;99.90
3406;DHT22;10008;48.682;9.016;2022-08-19T03:30:39;19.40;99.90
3406;DHT22;10008;48.682;9.016;2022-08-19T03:33:07;19.30;99.90
3406;DHT22;10008;48.682;9.016;2022-08-19T03:35:33;19.30;99.90
3406;DHT22;10008;48.682;9.016;2022-08-19T03:38:03;19.20;99.90
3406;DHT22;10008;48.682;9.016;2022-08-19T03:40:29;19.20;99.90
3406;DHT22;10008;48.682;9.016;2022-08-19T03:42:56;19.20;99.90
3406;DHT22;10008;48.682;9.016;2022-08-19T03:45:23;19.10;99.90
3406;DHT22;10008;48.682;9.016;2022-08-19T03:47:48;19.00;99.90
3406;DHT22;10008;48.682;9.016;2022-08-19T03:50:15;19.00;99.90
3406;DHT22;10008;48.682;9.016;2022-08-19T03:52:41;19.00;99.90
3406;DHT22;10008;48.682;9.016;2022-08-19T03:55:08;19.00;99.90
3406;DHT22;10008;48.682;9.016;2022-08-19T03:57:34;19.00;99.90
3406;DHT22;10008;48.682;9.016;2022-08-19T04:00:00;19.20;99.90
3406;DHT22;10008;48.682;9.016;2022-08-19T04:02:26;19.00;99.90
3406;DHT22;10008;48.682;9.016;2022-08-19T04:04:53;19.00;99.90
3406;DHT22;10008;48.682;9.016;2022-08-19T04:07:22;19.00;99.90
3406;DHT22;10008;48.682;9.016;2022-08-19T04:09:48;19.00;99.90
3406;DHT22;10008;48.682;9.016;2022-08-19T04:12:14;19.00;99.90
3406;DHT22;10008;48.682;9.016;2022-08-19T04:14:40;19.00;99.90
3406;DHT22;10008;48.682;9.016;2022-08-19T04:17:06;19.00;99.90
3406;DHT22;10008;48.682;9.016;2022-08-19T04:19:34;19.00;99.90
3406;DHT22;10008;48.682;9.016;2022-08-19T04:22:00;19.00;99.90
3406;DHT22;10008;48.682;9.016;2022-08-19T04:24:26;19.00;99.90
3406;DHT22;10008;48.682;9.016;2022-08-19T04:26:51;19.00;99.90
3406;DHT22;10008;48.682;9.016;2022-08-19T04:29:21;19.00;99.90
3406;DHT22;10008;48.682;9.016;2022-08-19T04:31:51;19.00;99.90
3406;DHT22;10008;48.682;9.016;2022-08-19T04:34:18;19.00;99.90
3406;DHT22;10008;48.682;9.016;2022-08-19T04:36:48;19.00;99.90
3406;DHT22;10008;48.682;9.016;2022-08-19T04:39:19;19.00;99.90
3406;DHT22;10008;48.682;9.016;2022-08-19T04:41:46;18.90;99.90
3406;DHT22;10008;48.682;9.016;2022-08-19T04:44:35;18.90;99.90
3406;DHT22;10008;48.682;9.016;2022-08-19T04:47:01;18.90;99.90
3406;DHT22;10008;48.682;9.016;2022-08-19T04:49:31;19.70;99.90
3406;DHT22;10008;48.682;9.016;2022-08-19T04:51:57;18.90;99.90
3406;DHT22;10008;48.682;9.016;2022-08-19T04:54:24;19.00;99.90
3406;DHT22;10008;48.682;9.016;2022-08-19T04:56:53;19.00;99.90
3406;DHT22;10008;48.682;9.016;2022-08-19T04:59:20;19.00;99.90
3406;DHT22;10008;48.682;9.016;2022-08-19T05:01:48;19.00;99.90
3406;DHT22;10008;48.682;9.016;2022-08-19T05:04:18;19.00;99.90
3406;DHT22;10008;48.682;9.016;2022-08-19T05:06:44;18.90;99.90
3406;DHT22;10008;48.682;9.016;2022-08-19T05:09:10;18.90;99.90
3406;DHT22;10008;48.682;9.016;2022-08-19T05:11:37;18.90;99.90
3406;DHT22;10008;48.682;9.016;2022-08-19T05:14:05;18.90;99.90
3406;DHT22;10008;48.682;9.016;2022-08-19T05:16:31;18.90;99.90
3406;DHT22;10008;48.682;9.016;2022-08-19T05:18:57;18.90;99.90
3406;DHT22;10008;48.682;9.016;2022-08-19T05:21:42;19.00;99.90
3406;DHT22;10008;48.682;9.016;2022-08-19T05:24:27;19.00;99.90
3406;DHT22;10008;48.682;9.016;2022-08-19T05:26:55;18.90;99.90
3406;DHT22;10008;48.682;9.016;2022-08-19T05:29:26;18.90;99.90
3406;DHT22;10008;48.682;9.016;2022-08-19T05:31:54;18.90;99.90
3406;DHT22;10008;48.682;9.016;2022-08-19T05:34:22;18.90;99.90
3406;DHT22;10008;48.682;9.016;2022-08-19T05:36:55;18.90;99.90
3406;DHT22;10008;48.682;9.016;2022-08-19T05:39:25;18.90;99.90
3406;DHT22;10008;48.682;9.016;2022-08-19T05:41:55;18.90;99.90
3406;DHT22;10008;48.682;9.016;2022-08-19T05:44:24;18.90;99.90
3406;DHT22;10008;48.682;9.016;2022-08-19T05:46:51;18.90;99.90
3406;DHT22;10008;48.682;9.016;2022-08-19T05:49:21;19.00;99.90
3406;DHT22;10008;48.682;9.016;2022-08-19T05:51:48;19.00;99.90
3406;DHT22;10008;48.682;9.016;2022-08-19T05:54:14;18.90;99.90
3406;DHT22;10008;48.682;9.016;2022-08-19T05:56:41;18.90;99.90
3406;DHT22;10008;48.682;9.016;2022-08-19T05:59:08;18.90;99.90
3406;DHT22;10008;48.682;9.016;2022-08-19T06:01:42;18.90;99.90
3406;DHT22;10008;48.682;9.016;2022-08-19T06:04:08;18.90;99.90
3406;DHT22;10008;48.682;9.016;2022-08-19T06:06:35;18.80;99.90
3406;DHT22;10008;48.682;9.016;2022-08-19T06:09:03;18.90;99.90
3406;DHT22;10008;48.682;9.016;2022-08-19T06:11:44;18.90;99.90
3406;DHT22;10008;48.682;9.016;2022-08-19T06:14:18;18.90;99.90
3406;DHT22;10008;48.682;9.016;2022-08-19T06:16:45;18.90;99.90
3406;DHT22;10008;48.682;9.016;2022-08-19T06:19:19;18.90;99.90
3406;DHT22;10008;48.682;9.016;2022-08-19T06:21:47;18.90;99.90
3406;DHT22;10008;48.682;9.016;2022-08-19T06:24:17;18.90;99.90
3406;DHT22;10008;48.682;9.016;2022-08-19T06:26:45;18.90;99.90
3406;DHT22;10008;48.682;9.016;2022-08-19T06:29:12;18.90;99.90
3406;DHT22;10008;48.682;9.016;2022-08-19T06:31:45;18.90;99.90
3406;DHT22;10008;48.682;9.016;2022-08-19T06:34:11;18.90;99.90
3406;DHT22;10008;48.682;9.016;2022-08-19T06:36:42;18.90;99.90
3406;DHT22;10008;48.682;9.016;2022-08-19T06:39:11;19.00;99.90
3406;DHT22;10008;48.682;9.016;2022-08-19T06:41:41;19.00;99.90
3406;DHT22;10008;48.682;9.016;2022-08-19T06:44:14;19.00;99.90
3406;DHT22;10008;48.682;9.016;2022-08-19T06:46:40;19.00;99.90
3406;DHT22;10008;48.682;9.016;2022-08-19T06:49:07;18.90;99.90
3406;DHT22;10008;48.682;9.016;2022-08-19T06:51:36;19.00;99.90
3406;DHT22;10008;48.682;9.016;2022-08-19T06:54:02;19.00;99.90
3406;DHT22;10008;48.682;9.016;2022-08-19T06:56:30;19.10;99.90
3406;DHT22;10008;48.682;9.016;2022-08-19T06:59:04;19.00;99.90
3406;DHT22;10008;48.682;9.016;2022-08-19T07:01:34;19.10;99.90
3406;DHT22;10008;48.682;9.016;2022-08-19T07:04:00;19.20;99.90
3406;DHT22;10008;48.682;9.016;2022-08-19T07:06:27;19.20;99.90
3406;DHT22;10008;48.682;9.016;2022-08-19T07:08:53;19.10;99.90
3406;DHT22;10008;48.682;9.016;2022-08-19T07:11:19;19.20;99.90
3406;DHT22;10008;48.682;9.016;2022-08-19T07:13:45;19.20;99.90
3406;DHT22;10008;48.682;9.016;2022-08-19T07:16:15;19.30;99.90
3406;DHT22;10008;48.682;9.016;2022-08-19T07:18:41;19.40;99.90
3406;DHT22;10008;48.682;9.016;2022-08-19T07:21:13;19.50;99.90
3406;DHT22;10008;48.682;9.016;2022-08-19T07:23:40;19.40;99.90
3406;DHT22;10008;48.682;9.016;2022-08-19T07:26:14;19.40;99.90
3406;DHT22;10008;48.682;9.016;2022-08-19T07:28:41;19.40;99.90
3406;DHT22;10008;48.682;9.016;2022-08-19T07:31:11;19.50;99.90
3406;DHT22;10008;48.682;9.016;2022-08-19T07:33:37;19.60;99.90
3406;DHT22;10008;48.682;9.016;2022-08-19T07:36:06;19.50;99.90
3406;DHT22;10008;48.682;9.016;2022-08-19T07:38:33;19.50;99.90
3406;DHT22;10008;48.682;9.016;2022-08-19T07:41:00;19.50;99.90
3406;DHT22;10008;48.682;9.016;2022-08-19T07:43:26;19.60;99.90
3406;DHT22;10008;48.682;9.016;2022-08-19T07:45:53;19.50;99.90
3406;DHT22;10008;48.682;9.016;2022-08-19T07:48:26;19.50;99.90
3406;DHT22;10008;48.682;9.016;2022-08-19T07:50:58;19.50;99.90
3406;DHT22;10008;48.682;9.016;2022-08-19T07:53:28;19.60;99.90
3406;DHT22;10008;48.682;9.016;2022-08-19T07:55:55;19.60;99.90
3406;DHT22;10008;48.682;9.016;2022-08-19T07:58:22;19.50;99.90
3406;DHT22;10008;48.682;9.016;2022-08-19T08:00:49;19.40;99.90
3406;DHT22;10008;48.682;9.016;2022-08-19T08:03:18;19.40;99.90
3406;DHT22;10008;48.682;9.016;2022-08-19T08:05:45;19.40;99.90
3406;DHT22;10008;48.682;9.016;2022-08-19T08:08:30;19.40;99.90
3406;DHT22;10008;48.682;9.016;2022-08-19T08:11:03;19.30;99.90
3406;DHT22;10008;48.682;9.016;2022-08-19T08:13:29;19.30;99.90
3406;DHT22;10008;48.682;9.016;2022-08-19T08:15:56;19.40;99.90
3406;DHT22;10008;48.682;9.016;2022-08-19T08:18:23;19.40;99.90
3406;DHT22;10008;48.682;9.016;2022-08-19T08:20:50;19.30;99.90
3406;DHT22;10008;48.682;9.016;2022-08-19T08:23:15;19.30;99.90
3406;DHT22;10008;48.682;9.016;2022-08-19T08:25:53;19.30;99.90
3406;DHT22;10008;48.682;9.016;2022-08-19T08:28:20;19.20;99.90
3406;DHT22;10008;48.682;9.016;2022-08-19T08:30:47;19.30;99.90
3406;DHT22;10008;48.682;9.016;2022-08-19T08:33:20;19.30;99.90
3406;DHT22;10008;48.682;9.016;2022-08-19T08:35:47;19.20;99.90
3406;DHT22;10008;48.682;9.016;2022-08-19T08:38:14;19.20;99.90
3406;DHT22;10008;48.682;9.016;2022-08-19T08:40:53;19.20;99.90
3406;DHT22;10008;48.682;9.016;2022-08-19T08:46:05;19.20;99.90
3406;DHT22;10008;48.682;9.016;2022-08-19T08:48:42;19.60;99.90
3406;DHT22;10008;48.682;9.016;2022-08-19T08:51:15;19.30;99.90
3406;DHT22;10008;48.682;9.016;2022-08-19T08:53:44;19.40;99.90
3406;DHT22;10008;48.682;9.016;2022-08-19T08:56:11;19.40;99.90
3406;DHT22;10008;48.682;9.016;2022-08-19T08:59:04;19.40;99.90
3406;DHT22;10008;48.682;9.016;2022-08-19T09:01:29;19.40;99.90
3406;DHT22;10008;48.682;9.016;2022-08-19T09:03:55;19.50;99.90
3406;DHT22;10008;48.682;9.016;2022-08-19T09:06:53;19.50;99.90
3406;DHT22;10008;48.682;9.016;2022-08-19T09:09:32;19.60;99.90
3406;DHT22;10008;48.682;9.016;2022-08-19T09:15:18;19.70;99.90
3406;DHT22;10008;48.682;9.016;2022-08-19T09:17:46;19.70;99.90
3406;DHT22;10008;48.682;9.016;2022-08-19T09:22:40;19.80;99.90
3406;DHT22;10008;48.682;9.016;2022-08-19T09:25:11;19.80;99.90
3406;DHT22;10008;48.682;9.016;2022-08-19T09:27:39;19.80;99.90
3406;DHT22;10008;48.682;9.016;2022-08-19T09:30:06;19.80;99.90
3406;DHT22;10008;48.682;9.016;2022-08-19T09:32:33;19.90;99.90
3406;DHT22;10008;48.682;9.016;2022-08-19T09:34:59;20.00;99.90
3406;DHT22;10008;48.682;9.016;2022-08-19T09:37:26;20.00;99.90
3406;DHT22;10008;48.682;9.016;2022-08-19T09:39:52;20.00;99.90
3406;DHT22;10008;48.682;9.016;2022-08-19T09:42:18;20.00;99.90
3406;DHT22;10008;48.682;9.016;2022-08-19T09:44:44;20.00;99.90
3406;DHT22;10008;48.682;9.016;2022-08-19T09:47:12;20.10;99.90
3406;DHT22;10008;48.682;9.016;2022-08-19T09:49:39;20.00;99.90
3406;DHT22;10008;48.682;9.016;2022-08-19T09:52:07;20.10;99.90
3406;DHT22;10008;48.682;9.016;2022-08-19T09:54:33;20.10;99.90
3406;DHT22;10008;48.682;9.016;2022-08-19T09:57:00;20.20;99.90
3406;DHT22;10008;48.682;9.016;2022-08-19T09:59:26;20.20;99.90
3406;DHT22;10008;48.682;9.016;2022-08-19T10:01:52;20.20;99.90
3406;DHT22;10008;48.682;9.016;2022-08-19T10:04:18;20.20;99.90
3406;DHT22;10008;48.682;9.016;2022-08-19T10:06:47;20.30;99.90
3406;DHT22;10008;48.682;9.016;2022-08-19T10:09:15;20.30;99.90
3406;DHT22;10008;48.682;9.016;2022-08-19T10:11:43;20.30;99.90
3406;DHT22;10008;48.682;9.016;2022-08-19T10:14:11;20.30;99.90
3406;DHT22;10008;48.682;9.016;2022-08-19T10:16:37;20.30;99.90
3406;DHT22;10008;48.682;9.016;2022-08-19T10:19:04;20.30;99.90
3406;DHT22;10008;48.682;9.016;2022-08-19T10:21:31;20.40;99.90
3406;DHT22;10008;48.682;9.016;2022-08-19T10:24:00;20.40;99.90
3406;DHT22;10008;48.682;9.016;2022-08-19T10:26:32;20.40;99.90
3406;DHT22;10008;48.682;9.016;2022-08-19T10:28:58;20.50;99.90
3406;DHT22;10008;48.682;9.016;2022-08-19T10:31:27;20.50;99.90
3406;DHT22;10008;48.682;9.016;2022-08-19T10:33:55;20.50;99.90
3406;DHT22;10008;48.682;9.016;2022-08-19T10:36:31;20.50;99.90
3406;DHT22;10008;48.682;9.016;2022-08-19T10:39:00;20.50;99.90
3406;DHT22;10008;48.682;9.016;2022-08-19T10:41:30;20.60;99.90
3406;DHT22;10008;48.682;9.016;2022-08-19T10:43:59;20.50;99.90
3406;DHT22;10008;48.682;9.016;2022-08-19T10:46:26;20.60;99.90
3406;DHT22;10008;48.682;9.016;2022-08-19T10:48:54;20.60;99.90
3406;DHT22;10008;48.682;9.016;2022-08-19T10:51:20;20.60;99.90
3406;DHT22;10008;48.682;9.016;2022-08-19T10:54:05;20.60;99.90
3406;DHT22;10008;48.682;9.016;2022-08-19T10:56:32;20.70;99.90
3406;DHT22;10008;48.682;9.016;2022-08-19T10:59:19;20.80;99.90
3406;DHT22;10008;48.682;9.016;2022-08-19T11:01:46;20.80;99.90
3406;DHT22;10008;48.682;9.016;2022-08-19T11:04:12;20.80;99.90
3406;DHT22;10008;48.682;9.016;2022-08-19T11:06:45;20.90;99.90
3406;DHT22;10008;48.682;9.016;2022-08-19T11:09:14;21.00;99.90
3406;DHT22;10008;48.682;9.016;2022-08-19T11:11:41;21.00;99.90
3406;DHT22;10008;48.682;9.016;2022-08-19T11:14:09;21.10;99.90
3406;DHT22;10008;48.682;9.016;2022-08-19T11:16:36;21.20;99.90
3406;DHT22;10008;48.682;9.016;2022-08-19T11:19:03;21.30;99.90
3406;DHT22;10008;48.682;9.016;2022-08-19T11:21:32;21.30;99.90
3406;DHT22;10008;48.682;9.016;2022-08-19T11:24:01;21.40;99.90
3406;DHT22;10008;48.682;9.016;2022-08-19T11:26:28;21.40;99.90
3406;DHT22;10008;48.682;9.016;2022-08-19T11:28:55;21.50;99.90
3406;DHT22;10008;48.682;9.016;2022-08-19T11:31:25;21.40;99.90
3406;DHT22;10008;48.682;9.016;2022-08-19T11:33:51;21.50;99.90
3406;DHT22;10008;48.682;9.016;2022-08-19T11:36:20;21.50;99.90
3406;DHT22;10008;48.682;9.016;2022-08-19T11:38:50;21.50;99.90
3406;DHT22;10008;48.682;9.016;2022-08-19T11:41:18;21.60;99.90
3406;DHT22;10008;48.682;9.016;2022-08-19T11:43:44;21.60;99.90
3406;DHT22;10008;48.682;9.016;2022-08-19T11:46:12;21.60;99.90
3406;DHT22;10008;48.682;9.016;2022-08-19T11:48:38;21.70;99.90
3406;DHT22;10008;48.682;9.016;2022-08-19T11:51:07;21.70;99.90
3406;DHT22;10008;48.682;9.016;2022-08-19T11:53:35;21.70;99.90
3406;DHT22;10008;48.682;9.016;2022-08-19T11:56:02;21.80;99.90
3406;DHT22;10008;48.682;9.016;2022-08-19T11:58:28;21.80;99.90
3406;DHT22;10008;48.682;9.016;2022-08-19T12:00:54;21.80;99.90
3406;DHT22;10008;48.682;9.016;2022-08-19T12:03:20;21.90;99.90
3406;DHT22;10008;48.682;9.016;2022-08-19T12:05:47;21.90;99.90
3406;DHT22;10008;48.682;9.016;2022-08-19T12:08:12;21.90;99.90
3406;DHT22;10008;48.682;9.016;2022-08-19T12:10:39;22.00;99.90
3406;DHT22;10008;48.682;9.016;2022-08-19T12:13:06;22.00;99.90
3406;DHT22;10008;48.682;9.016;2022-08-19T12:15:37;22.00;99.90
3406;DHT22;10008;48.682;9.016;2022-08-19T12:18:06;22.00;99.90
3406;DHT22;10008;48.682;9.016;2022-08-19T12:20:37;22.10;99.90
3406;DHT22;10008;48.682;9.016;2022-08-19T12:23:04;22.10;99.90
3406;DHT22;10008;48.682;9.016;2022-08-19T12:25:30;22.10;99.90
3406;DHT22;10008;48.682;9.016;2022-08-19T12:27:57;22.20;99.90
3406;DHT22;10008;48.682;9.016;2022-08-19T12:30:24;22.20;99.90
3406;DHT22;10008;48.682;9.016;2022-08-19T12:32:50;22.30;99.90
3406;DHT22;10008;48.682;9.016;2022-08-19T12:35:17;22.40;99.90
3406;DHT22;10008;48.682;9.016;2022-08-19T12:37:46;22.50;99.90
3406;DHT22;10008;48.682;9.016;2022-08-19T12:40:12;22.60;99.90
3406;DHT22;10008;48.682;9.016;2022-08-19T12:42:39;22.60;99.90
3406;DHT22;10008;48.682;9.016;2022-08-19T12:45:11;22.70;99.90
3406;DHT22;10008;48.682;9.016;2022-08-19T12:47:38;22.80;99.90
3406;DHT22;10008;48.682;9.016;2022-08-19T12:50:04;22.80;99.90
3406;DHT22;10008;48.682;9.016;2022-08-19T12:52:32;22.90;99.90
3406;DHT22;10008;48.682;9.016;2022-08-19T12:54:57;22.90;99.90
3406;DHT22;10008;48.682;9.016;2022-08-19T12:57:25;22.90;99.90
3406;DHT22;10008;48.682;9.016;2022-08-19T12:59:54;22.90;99.90
3406;DHT22;10008;48.682;9.016;2022-08-19T13:02:20;23.00;99.90
3406;DHT22;10008;48.682;9.016;2022-08-19T13:04:46;23.00;99.90
3406;DHT22;10008;48.682;9.016;2022-08-19T13:07:12;23.00;99.20
3406;DHT22;10008;48.682;9.016;2022-08-19T13:09:38;23.10;99.80
3406;DHT22;10008;48.682;9.016;2022-08-19T13:12:06;23.10;99.40
3406;DHT22;10008;48.682;9.016;2022-08-19T13:14:34;23.10;98.90
3406;DHT22;10008;48.682;9.016;2022-08-19T13:17:00;23.10;98.60
3406;DHT22;10008;48.682;9.016;2022-08-19T13:19:26;23.10;98.60
3406;DHT22;10008;48.682;9.016;2022-08-19T13:21:52;23.20;98.40
3406;DHT22;10008;48.682;9.016;2022-08-19T13:24:21;23.20;98.70
3406;DHT22;10008;48.682;9.016;2022-08-19T13:26:46;23.30;98.00
3406;DHT22;10008;48.682;9.016;2022-08-19T13:29:13;23.40;97.50
3406;DHT22;10008;48.682;9.016;2022-08-19T13:31:58;23.40;97.50
3406;DHT22;10008;48.682;9.016;2022-08-19T13:34:42;23.40;96.90
3406;DHT22;10008;48.682;9.016;2022-08-19T13:37:08;23.40;97.00
3406;DHT22;10008;48.682;9.016;2022-08-19T13:39:35;23.50;97.00
3406;DHT22;10008;48.682;9.016;2022-08-19T13:42:01;23.50;97.00
3406;DHT22;10008;48.682;9.016;2022-08-19T13:44:28;23.50;96.70
3406;DHT22;10008;48.682;9.016;2022-08-19T13:47:02;23.50;96.70
3406;DHT22;10008;48.682;9.016;2022-08-19T13:49:31;23.50;98.00
3406;DHT22;10008;48.682;9.016;2022-08-19T13:51:57;23.40;98.80
3406;DHT22;10008;48.682;9.016;2022-08-19T13:54:23;23.30;99.10
3406;DHT22;10008;48.682;9.016;2022-08-19T13:56:48;23.40;99.40
3406;DHT22;10008;48.682;9.016;2022-08-19T13:59:14;23.50;99.10
3406;DHT22;10008;48.682;9.016;2022-08-19T14:01:41;23.60;98.70
3406;DHT22;10008;48.682;9.016;2022-08-19T14:04:07;23.70;98.90
3406;DHT22;10008;48.682;9.016;2022-08-19T14:06:34;23.70;98.90
3406;DHT22;10008;48.682;9.016;2022-08-19T14:09:00;23.50;98.90
3406;DHT22;10008;48.682;9.016;2022-08-19T14:11:28;23.40;98.90
3406;DHT22;10008;48.682;9.016;2022-08-19T14:13:54;23.30;99.00
3406;DHT22;10008;48.682;9.016;2022-08-19T14:16:20;23.40;99.30
3406;DHT22;10008;48.682;9.016;2022-08-19T14:18:47;23.60;98.90
3406;DHT22;10008;48.682;9.016;2022-08-19T14:21:31;23.90;98.40
3406;DHT22;10008;48.682;9.016;2022-08-19T14:23:56;24.00;98.00
3406;DHT22;10008;48.682;9.016;2022-08-19T14:26:23;23.90;97.70
3406;DHT22;10008;48.682;9.016;2022-08-19T14:28:49;23.90;97.40
3406;DHT22;10008;48.682;9.016;2022-08-19T14:31:16;23.80;97.60
3406;DHT22;10008;48.682;9.016;2022-08-19T14:33:45;23.70;97.10
3406;DHT22;10008;48.682;9.016;2022-08-19T14:36:11;23.70;97.50
3406;DHT22;10008;48.682;9.016;2022-08-19T14:38:37;23.70;97.50
3406;DHT22;10008;48.682;9.016;2022-08-19T14:43:36;23.50;97.40
3406;DHT22;10008;48.682;9.016;2022-08-19T14:46:03;23.50;97.40
3406;DHT22;10008;48.682;9.016;2022-08-19T14:48:28;23.50;97.50
3406;DHT22;10008;48.682;9.016;2022-08-19T14:50:54;23.60;97.70
3406;DHT22;10008;48.682;9.016;2022-08-19T14:53:20;23.50;97.10
3406;DHT22;10008;48.682;9.016;2022-08-19T14:55:46;23.50;97.30
3406;DHT22;10008;48.682;9.016;2022-08-19T14:58:13;23.60;97.10
3406;DHT22;10008;48.682;9.016;2022-08-19T15:00:40;23.70;97.30
3406;DHT22;10008;48.682;9.016;2022-08-19T15:03:06;23.70;97.20
3406;DHT22;10008;48.682;9.016;2022-08-19T15:05:31;23.70;96.70
3406;DHT22;10008;48.682;9.016;2022-08-19T15:07:57;23.70;96.40
3406;DHT22;10008;48.682;9.016;2022-08-19T15:10:23;23.80;96.90
3406;DHT22;10008;48.682;9.016;2022-08-19T15:12:50;23.90;97.00
3406;DHT22;10008;48.682;9.016;2022-08-19T15:15:16;23.90;96.00
3406;DHT22;10008;48.682;9.016;2022-08-19T15:17:45;23.90;96.30
3406;DHT22;10008;48.682;9.016;2022-08-19T15:20:14;23.90;95.80
3406;DHT22;10008;48.682;9.016;2022-08-19T15:22:40;23.90;96.10
3406;DHT22;10008;48.682;9.016;2022-08-19T15:25:08;23.90;96.00
3406;DHT22;10008;48.682;9.016;2022-08-19T15:27:35;24.00;95.60
3406;DHT22;10008;48.682;9.016;2022-08-19T15:30:01;24.10;95.70
3406;DHT22;10008;48.682;9.016;2022-08-19T15:32:27;24.20;95.60
3406;DHT22;10008;48.682;9.016;2022-08-19T15:34:54;24.50;95.80
3406;DHT22;10008;48.682;9.016;2022-08-19T15:37:20;24.80;95.20
3406;DHT22;10008;48.682;9.016;2022-08-19T15:39:50;24.90;95.30
3406;DHT22;10008;48.682;9.016;2022-08-19T15:42:16;24.90;94.70
3406;DHT22;10008;48.682;9.016;2022-08-19T15:44:42;24.90;94.80
3406;DHT22;10008;48.682;9.016;2022-08-19T15:47:08;25.10;94.50
3406;DHT22;10008;48.682;9.016;2022-08-19T15:49:34;25.20;93.80
3406;DHT22;10008;48.682;9.016;2022-08-19T15:52:00;25.10;93.30
3406;DHT22;10008;48.682;9.016;2022-08-19T15:54:26;25.20;93.90
3406;DHT22;10008;48.682;9.016;2022-08-19T15:56:52;25.20;93.60
3406;DHT22;10008;48.682;9.016;2022-08-19T15:59:37;25.20;93.60
3406;DHT22;10008;48.682;9.016;2022-08-19T16:02:27;25.20;93.50